sensor_id;sensor_type;location;lat;lon;timestamp;temperature;humidity
16968;DHT22;64862;54.398;10.126;2023-02-10T00:06:36;4.20;99.90
16968;DHT22;64862;54.398;10.126;2023-02-10T00:16:40;4.10;99.90
16968;DHT22;64862;54.398;10.126;2023-02-10T00:26:42;3.90;99.90
16968;DHT22;64862;54.398;10.126;2023-02-10T00:36:48;3.90;99.90
16968;DHT22;64862;54.398;10.126;2023-02-10T00:46:51;3.90;99.90
16968;DHT22;64862;54.398;10.126;2023-02-10T00:56:55;3.90;99.90
16968;DHT22;64862;54.398;10.126;2023-02-10T01:06:58;3.70;99.90
16968;DHT22;64862;54.398;10.126;2023-02-10T01:17:08;3.80;99.90
16968;DHT22;64862;54.398;10.126;2023-02-10T01:27:10;3.90;99.90
16968;DHT22;64862;54.398;10.126;2023-02-10T01:37:15;4.10;99.90
16968;DHT22;64862;54.398;10.126;2023-02-10T01:47:19;4.20;99.90
16968;DHT22;64862;54.398;10.126;2023-02-10T01:57:25;4.40;99.90
16968;DHT22;64862;54.398;10.126;2023-02-10T02:07:29;4.60;99.90
16968;DHT22;64862;54.398;10.126;2023-02-10T02:17:38;4.60;99.90
16968;DHT22;64862;54.398;10.126;2023-02-10T02:28:05;4.40;99.90
16968;DHT22;64862;54.398;10.126;2023-02-10T02:38:11;4.40;99.90
16968;DHT22;64862;54.398;10.126;2023-02-10T02:48:31;4.60;99.90
16968;DHT22;64862;54.398;10.126;2023-02-10T02:58:46;4.70;99.90
16968;DHT22;64862;54.398;10.126;2023-02-10T03:08:50;4.80;99.90
16968;DHT22;64862;54.398;10.126;2023-02-10T03:18:53;4.90;99.90
16968;DHT22;64862;54.398;10.126;2023-02-10T03:28:56;5.00;99.90
16968;DHT22;64862;54.398;10.126;2023-02-10T03:39:00;4.90;99.90
16968;DHT22;64862;54.398;10.126;2023-02-10T03:49:03;4.90;99.90
16968;DHT22;64862;54.398;10.126;2023-02-10T03:59:07;5.10;99.90
16968;DHT22;64862;54.398;10.126;2023-02-10T04:09:10;5.00;99.90
16968;DHT22;64862;54.398;10.126;2023-02-10T04:19:13;5.00;99.90
16968;DHT22;64862;54.398;10.126;2023-02-10T04:29:15;5.00;99.90
16968;DHT22;64862;54.398;10.126;2023-02-10T04:39:19;5.00;99.90
16968;DHT22;64862;54.398;10.126;2023-02-10T04:49:21;5.10;99.90
16968;DHT22;64862;54.398;10.126;2023-02-10T04:59:25;5.10;99.90
16968;DHT22;64862;54.398;10.126;2023-02-10T05:09:27;5.20;99.90
16968;DHT22;64862;54.398;10.126;2023-02-10T05:19:31;5.30;99.90
16968;DHT22;64862;54.398;10.126;2023-02-10T05:29:34;5.30;99.90
16968;DHT22;64862;54.398;10.126;2023-02-10T05:39:37;5.30;99.90
16968;DHT22;64862;54.398;10.126;2023-02-10T05:49:40;5.40;99.90
16968;DHT22;64862;54.398;10.126;2023-02-10T05:59:44;5.30;99.90
16968;DHT22;64862;54.398;10.126;2023-02-10T06:09:46;5.20;99.90
16968;DHT22;64862;54.398;10.126;2023-02-10T06:19:50;5.30;99.90
16968;DHT22;64862;54.398;10.126;2023-02-10T06:29:52;5.20;99.90
16968;DHT22;64862;54.398;10.126;2023-02-10T06:39:55;5.30;99.90
16968;DHT22;64862;54.398;10.126;2023-02-10T06:49:58;5.40;99.90
16968;DHT22;64862;54.398;10.126;2023-02-10T07:00:02;5.40;99.90
16968;DHT22;64862;54.398;10.126;2023-02-10T07:10:05;5.50;99.90
16968;DHT22;64862;54.398;10.126;2023-02-10T07:20:10;5.60;99.90
16968;DHT22;64862;54.398;10.126;2023-02-10T07:30:13;5.60;99.90
16968;DHT22;64862;54.398;10.126;2023-02-10T07:40:18;5.70;99.90
16968;DHT22;64862;54.398;10.126;2023-02-10T07:50:22;5.70;99.90
16968;DHT22;64862;54.398;10.126;2023-02-10T08:00:26;5.70;99.90
16968;DHT22;64862;54.398;10.126;2023-02-10T08:10:28;5.80;99.90
16968;DHT22;64862;54.398;10.126;2023-02-10T08:20:32;6.00;99.90
16968;DHT22;64862;54.398;10.126;2023-02-10T08:30:36;6.10;99.90
16968;DHT22;64862;54.398;10.126;2023-02-10T08:40:40;6.20;99.90
16968;DHT22;64862;54.398;10.126;2023-02-10T08:50:42;6.30;99.90
16968;DHT22;64862;54.398;10.126;2023-02-10T09:00:46;6.40;99.90
16968;DHT22;64862;54.398;10.126;2023-02-10T09:10:48;6.30;99.90
16968;DHT22;64862;54.398;10.126;2023-02-10T09:20:52;6.70;99.90
16968;DHT22;64862;54.398;10.126;2023-02-10T09:30:54;6.80;99.90
16968;DHT22;64862;54.398;10.126;2023-02-10T09:41:09;6.80;99.90
16968;DHT22;64862;54.398;10.126;2023-02-10T09:51:31;6.80;99.90
16968;DHT22;64862;54.398;10.126;2023-02-10T10:01:39;6.90;99.90
16968;DHT22;64862;54.398;10.126;2023-02-10T10:11:45;7.00;99.90
16968;DHT22;64862;54.398;10.126;2023-02-10T10:21:59;7.20;99.90
16968;DHT22;64862;54.398;10.126;2023-02-10T10:32:13;7.10;99.90
16968;DHT22;64862;54.398;10.126;2023-02-10T10:42:25;7.10;99.90
16968;DHT22;64862;54.398;10.126;2023-02-10T10:52:32;7.10;99.90
16968;DHT22;64862;54.398;10.126;2023-02-10T11:02:38;7.20;99.90
16968;DHT22;64862;54.398;10.126;2023-02-10T11:12:40;7.60;99.90
16968;DHT22;64862;54.398;10.126;2023-02-10T11:22:56;7.70;99.90
16968;DHT22;64862;54.398;10.126;2023-02-10T11:33:00;7.70;99.90
16968;DHT22;64862;54.398;10.126;2023-02-10T11:43:06;7.70;99.90
16968;DHT22;64862;54.398;10.126;2023-02-10T11:53:13;7.80;99.90
16968;DHT22;64862;54.398;10.126;2023-02-10T12:03:45;8.00;99.90
16968;DHT22;64862;54.398;10.126;2023-02-10T12:13:54;8.10;99.90
16968;DHT22;64862;54.398;10.126;2023-02-10T12:24:13;8.00;99.90
16968;DHT22;64862;54.398;10.126;2023-02-10T12:44:55;8.10;99.90
16968;DHT22;64862;54.398;10.126;2023-02-10T12:55:04;8.00;99.90
16968;DHT22;64862;54.398;10.126;2023-02-10T13:05:12;7.80;99.90
16968;DHT22;64862;54.398;10.126;2023-02-10T13:15:16;7.90;99.90
16968;DHT22;64862;54.398;10.126;2023-02-10T13:25:29;8.10;99.90
16968;DHT22;64862;54.398;10.126;2023-02-10T13:35:33;8.10;99.90
16968;DHT22;64862;54.398;10.126;2023-02-10T13:45:37;7.90;99.90
16968;DHT22;64862;54.398;10.126;2023-02-10T13:55:42;7.90;99.90
16968;DHT22;64862;54.398;10.126;2023-02-10T14:05:55;7.60;99.90
16968;DHT22;64862;54.398;10.126;2023-02-10T14:16:01;7.50;99.90
16968;DHT22;64862;54.398;10.126;2023-02-10T14:26:07;7.40;99.90
16968;DHT22;64862;54.398;10.126;2023-02-10T14:36:16;7.40;99.90
16968;DHT22;64862;54.398;10.126;2023-02-10T14:46:22;7.30;99.90
16968;DHT22;64862;54.398;10.126;2023-02-10T14:56:27;7.10;99.90
16968;DHT22;64862;54.398;10.126;2023-02-10T15:06:32;7.10;99.90
16968;DHT22;64862;54.398;10.126;2023-02-10T15:16:34;7.10;99.90
16968;DHT22;64862;54.398;10.126;2023-02-10T15:26:39;7.10;99.90
16968;DHT22;64862;54.398;10.126;2023-02-10T15:36:46;7.10;99.90
16968;DHT22;64862;54.398;10.126;2023-02-10T15:46:52;7.10;99.90
16968;DHT22;64862;54.398;10.126;2023-02-10T15:56:55;7.00;99.90
16968;DHT22;64862;54.398;10.126;2023-02-10T16:07:00;7.00;99.90
16968;DHT22;64862;54.398;10.126;2023-02-10T16:17:04;7.10;99.90
16968;DHT22;64862;54.398;10.126;2023-02-10T16:27:09;7.00;99.90
16968;DHT22;64862;54.398;10.126;2023-02-10T16:37:18;7.00;99.90
16968;DHT22;64862;54.398;10.126;2023-02-10T16:47:23;7.00;99.90
16968;DHT22;64862;54.398;10.126;2023-02-10T16:57:25;7.00;99.90
16968;DHT22;64862;54.398;10.126;2023-02-10T17:07:29;6.90;99.90
16968;DHT22;64862;54.398;10.126;2023-02-10T17:17:33;6.80;99.90
16968;DHT22;64862;54.398;10.126;2023-02-10T17:27:40;6.70;99.90
16968;DHT22;64862;54.398;10.126;2023-02-10T17:37:42;6.60;99.90
16968;DHT22;64862;54.398;10.126;2023-02-10T17:47:47;6.50;99.90
16968;DHT22;64862;54.398;10.126;2023-02-10T17:57:52;6.50;99.90
16968;DHT22;64862;54.398;10.126;2023-02-10T18:07:58;6.30;99.90
16968;DHT22;64862;54.398;10.126;2023-02-10T18:18:00;6.30;99.90
16968;DHT22;64862;54.398;10.126;2023-02-10T18:28:07;6.20;99.90
16968;DHT22;64862;54.398;10.126;2023-02-10T18:38:11;6.20;99.90
16968;DHT22;64862;54.398;10.126;2023-02-10T18:48:15;6.30;99.90
16968;DHT22;64862;54.398;10.126;2023-02-10T18:58:17;6.30;99.90
16968;DHT22;64862;54.398;10.126;2023-02-10T19:08:21;6.20;99.90
16968;DHT22;64862;54.398;10.126;2023-02-10T19:18:25;6.40;99.90
16968;DHT22;64862;54.398;10.126;2023-02-10T19:28:28;6.40;99.90
16968;DHT22;64862;54.398;10.126;2023-02-10T19:38:31;6.50;99.90
16968;DHT22;64862;54.398;10.126;2023-02-10T19:48:36;6.60;99.90
16968;DHT22;64862;54.398;10.126;2023-02-10T19:58:39;6.50;99.90
16968;DHT22;64862;54.398;10.126;2023-02-10T20:08:43;6.40;99.90
16968;DHT22;64862;54.398;10.126;2023-02-10T20:18:45;6.60;99.90
16968;DHT22;64862;54.398;10.126;2023-02-10T20:28:49;6.60;99.90
16968;DHT22;64862;54.398;10.126;2023-02-10T20:38:51;6.20;99.90
16968;DHT22;64862;54.398;10.126;2023-02-10T20:48:55;6.10;99.90
16968;DHT22;64862;54.398;10.126;2023-02-10T20:59:00;6.00;99.90
16968;DHT22;64862;54.398;10.126;2023-02-10T21:09:10;5.80;99.90
16968;DHT22;64862;54.398;10.126;2023-02-10T21:19:12;5.80;99.90
16968;DHT22;64862;54.398;10.126;2023-02-10T21:29:16;5.70;99.90
16968;DHT22;64862;54.398;10.126;2023-02-10T21:39:18;5.70;99.90
16968;DHT22;64862;54.398;10.126;2023-02-10T21:49:24;5.70;99.90
16968;DHT22;64862;54.398;10.126;2023-02-10T21:59:27;5.70;99.90
16968;DHT22;64862;54.398;10.126;2023-02-10T22:09:30;5.70;99.90
16968;DHT22;64862;54.398;10.126;2023-02-10T22:19:33;5.80;99.90
16968;DHT22;64862;54.398;10.126;2023-02-10T22:29:36;5.90;99.90
16968;DHT22;64862;54.398;10.126;2023-02-10T22:39:38;5.90;99.90
16968;DHT22;64862;54.398;10.126;2023-02-10T22:49:43;6.00;99.90
16968;DHT22;64862;54.398;10.126;2023-02-10T22:59:46;5.90;99.90
16968;DHT22;64862;54.398;10.126;2023-02-10T23:09:50;5.90;99.90
16968;DHT22;64862;54.398;10.126;2023-02-10T23:19:52;6.00;99.90
16968;DHT22;64862;54.398;10.126;2023-02-10T23:29:57;6.00;99.90
16968;DHT22;64862;54.398;10.126;2023-02-10T23:39:59;6.00;99.90
16968;DHT22;64862;54.398;10.126;2023-02-10T23:50:04;6.10;99.90
